IBB36VX GCXO-LPMA
Flight info
| Callsign | IBB36VX |
|---|---|
| Flight time | N/A |
| Altitude | 30000 |
| Route | BIMBO DCT EKNOT |
| Aircraft | E195/M-SDE3GILORVW/S |
Departure
| Time | 2026-04-25 12:23 |
|---|---|
| Airport | Tenerife Norte-Ciudad de La Laguna Airport (GCXO) |
Arrival
| Time | N/A |
|---|---|
| Airport | Cristiano Ronaldo International Airport (LPMA) |
| Time | Latitude | Longitude | Altitude | Speed | Heading |
|---|---|---|---|---|---|
| 2026-04-25 12:09 | 28.48495 | -16.34184 | 2062 ft | 0 kts | 20° |
| 2026-04-25 12:18 | 28.48497 | -16.34183 | 2062 ft | 1 kts | 23° |
| 2026-04-25 12:18 | 28.48501 | -16.34176 | 2062 ft | 1 kts | 55° |
| 2026-04-25 12:19 | 28.48491 | -16.34156 | 2062 ft | 3 kts | 150° |
| 2026-04-25 12:19 | 28.48460 | -16.34173 | 2062 ft | 6 kts | 212° |
| 2026-04-25 12:19 | 28.48411 | -16.34179 | 2062 ft | 9 kts | 159° |
| 2026-04-25 12:20 | 28.48370 | -16.34110 | 2061 ft | 13 kts | 110° |
| 2026-04-25 12:20 | 28.48330 | -16.33992 | 2058 ft | 18 kts | 110° |
| 2026-04-25 12:20 | 28.48280 | -16.33839 | 2056 ft | 23 kts | 110° |
| 2026-04-25 12:20 | 28.48219 | -16.33660 | 2052 ft | 23 kts | 111° |
| 2026-04-25 12:21 | 28.48174 | -16.33520 | 2055 ft | 16 kts | 110° |
| 2026-04-25 12:21 | 28.48127 | -16.33381 | 2050 ft | 23 kts | 110° |
| 2026-04-25 12:21 | 28.48062 | -16.33180 | 2044 ft | 31 kts | 111° |
| 2026-04-25 12:21 | 28.47977 | -16.32929 | 2041 ft | 37 kts | 110° |
| 2026-04-25 12:22 | 28.47884 | -16.32649 | 2042 ft | 33 kts | 110° |
| 2026-04-25 12:22 | 28.47755 | -16.32549 | 2039 ft | 12 kts | 219° |
| 2026-04-25 12:22 | 28.47758 | -16.32628 | 2040 ft | 11 kts | 288° |
| 2026-04-25 12:22 | 28.47786 | -16.32715 | 2041 ft | 16 kts | 290° |
| 2026-04-25 12:23 | 28.47947 | -16.33198 | 2046 ft | 115 kts | 291° |
| 2026-04-25 12:23 | 28.48301 | -16.34266 | 2152 ft | 148 kts | 290° |
| 2026-04-25 12:23 | 28.48641 | -16.35368 | 2768 ft | 145 kts | 290° |
| 2026-04-25 12:23 | 28.48955 | -16.36511 | 3494 ft | 164 kts | 291° |
| 2026-04-25 12:24 | 28.49354 | -16.37799 | 4483 ft | 188 kts | 294° |
| 2026-04-25 12:24 | 28.49994 | -16.39242 | 5522 ft | 223 kts | 302° |
| 2026-04-25 12:24 | 28.51024 | -16.40710 | 6478 ft | 263 kts | 313° |
| 2026-04-25 12:24 | 28.52541 | -16.41899 | 7388 ft | 265 kts | 336° |
| 2026-04-25 12:25 | 28.54376 | -16.42228 | 8372 ft | 272 kts | 6° |